sensor_id;sensor_type;location;lat;lon;timestamp;P1;durP1;ratioP1;P2;durP2;ratioP2
42846;SDS011;28495;49.916;14.536;2022-12-08T11:27:33;5.32;;;3.50;;
42846;SDS011;28495;49.916;14.536;2022-12-08T11:32:57;8.10;;;3.80;;
42846;SDS011;28495;49.916;14.536;2022-12-08T11:48:34;7.82;;;4.95;;
42846;SDS011;28495;49.916;14.536;2022-12-08T11:54:04;6.70;;;3.75;;
42846;SDS011;28495;49.916;14.536;2022-12-08T12:10:47;5.15;;;3.42;;
42846;SDS011;28495;49.916;14.536;2022-12-08T12:21:37;8.23;;;4.32;;
42846;SDS011;28495;49.916;14.536;2022-12-08T12:27:18;5.57;;;4.68;;
42846;SDS011;28495;49.916;14.536;2022-12-08T12:32:46;5.53;;;3.42;;
42846;SDS011;28495;49.916;14.536;2022-12-08T12:50:04;4.75;;;2.78;;
42846;SDS011;28495;49.916;14.536;2022-12-08T12:55:26;3.47;;;2.45;;
42846;SDS011;28495;49.916;14.536;2022-12-08T13:00:48;5.05;;;2.92;;
42846;SDS011;28495;49.916;14.536;2022-12-08T13:06:09;4.80;;;3.20;;
42846;SDS011;28495;49.916;14.536;2022-12-08T13:11:44;3.88;;;2.42;;
42846;SDS011;28495;49.916;14.536;2022-12-08T13:17:10;3.63;;;2.30;;
42846;SDS011;28495;49.916;14.536;2022-12-08T13:22:48;4.85;;;2.90;;
42846;SDS011;28495;49.916;14.536;2022-12-08T13:28:20;6.28;;;3.00;;
42846;SDS011;28495;49.916;14.536;2022-12-08T13:33:43;11.02;;;2.92;;
42846;SDS011;28495;49.916;14.536;2022-12-08T13:39:04;3.40;;;2.30;;
42846;SDS011;28495;49.916;14.536;2022-12-08T13:44:40;5.03;;;2.15;;
42846;SDS011;28495;49.916;14.536;2022-12-08T13:50:38;4.03;;;2.50;;
42846;SDS011;28495;49.916;14.536;2022-12-08T13:56:23;4.38;;;2.95;;
42846;SDS011;28495;49.916;14.536;2022-12-08T14:07:50;3.47;;;2.83;;
42846;SDS011;28495;49.916;14.536;2022-12-08T14:13:14;5.00;;;2.50;;
42846;SDS011;28495;49.916;14.536;2022-12-08T14:18:36;4.53;;;2.88;;
42846;SDS011;28495;49.916;14.536;2022-12-08T14:24:01;6.07;;;2.92;;
42846;SDS011;28495;49.916;14.536;2022-12-08T14:29:39;3.20;;;2.17;;
42846;SDS011;28495;49.916;14.536;2022-12-08T14:40:34;3.00;;;2.28;;
42846;SDS011;28495;49.916;14.536;2022-12-08T14:46:00;3.80;;;2.45;;
42846;SDS011;28495;49.916;14.536;2022-12-08T14:51:25;6.22;;;3.28;;
42846;SDS011;28495;49.916;14.536;2022-12-08T14:56:51;4.68;;;3.20;;
42846;SDS011;28495;49.916;14.536;2022-12-08T15:07:43;6.22;;;3.58;;
42846;SDS011;28495;49.916;14.536;2022-12-08T15:18:30;8.38;;;3.40;;
42846;SDS011;28495;49.916;14.536;2022-12-08T15:23:56;4.88;;;3.35;;
42846;SDS011;28495;49.916;14.536;2022-12-08T15:29:27;5.82;;;3.20;;
42846;SDS011;28495;49.916;14.536;2022-12-08T15:34:49;5.78;;;3.40;;
42846;SDS011;28495;49.916;14.536;2022-12-08T15:45:39;4.18;;;3.25;;
42846;SDS011;28495;49.916;14.536;2022-12-08T15:51:17;4.68;;;3.25;;
42846;SDS011;28495;49.916;14.536;2022-12-08T15:56:48;6.53;;;4.10;;
42846;SDS011;28495;49.916;14.536;2022-12-08T16:08:13;6.30;;;3.45;;
42846;SDS011;28495;49.916;14.536;2022-12-08T16:13:55;5.05;;;3.00;;
42846;SDS011;28495;49.916;14.536;2022-12-08T16:19:37;7.93;;;4.88;;
42846;SDS011;28495;49.916;14.536;2022-12-08T16:24:57;9.27;;;5.28;;
42846;SDS011;28495;49.916;14.536;2022-12-08T16:30:37;10.25;;;6.13;;
42846;SDS011;28495;49.916;14.536;2022-12-08T16:35:58;11.63;;;6.43;;
42846;SDS011;28495;49.916;14.536;2022-12-08T16:41:19;11.25;;;5.35;;
42846;SDS011;28495;49.916;14.536;2022-12-08T16:47:01;8.70;;;5.05;;
42846;SDS011;28495;49.916;14.536;2022-12-08T16:52:28;10.07;;;5.20;;
42846;SDS011;28495;49.916;14.536;2022-12-08T16:57:49;8.23;;;4.82;;
42846;SDS011;28495;49.916;14.536;2022-12-08T17:03:10;8.30;;;4.78;;
42846;SDS011;28495;49.916;14.536;2022-12-08T17:08:34;8.75;;;4.22;;
42846;SDS011;28495;49.916;14.536;2022-12-08T17:13:54;8.85;;;4.70;;
42846;SDS011;28495;49.916;14.536;2022-12-08T17:19:15;10.30;;;5.07;;
42846;SDS011;28495;49.916;14.536;2022-12-08T17:24:36;10.43;;;4.40;;
42846;SDS011;28495;49.916;14.536;2022-12-08T17:29:57;8.88;;;4.25;;
42846;SDS011;28495;49.916;14.536;2022-12-08T17:35:18;6.38;;;3.70;;
42846;SDS011;28495;49.916;14.536;2022-12-08T17:40:40;7.93;;;5.18;;
42846;SDS011;28495;49.916;14.536;2022-12-08T17:46:00;12.38;;;5.47;;
42846;SDS011;28495;49.916;14.536;2022-12-08T17:51:21;9.43;;;6.32;;
42846;SDS011;28495;49.916;14.536;2022-12-08T17:56:43;8.80;;;5.47;;
42846;SDS011;28495;49.916;14.536;2022-12-08T18:02:04;23.25;;;13.20;;
42846;SDS011;28495;49.916;14.536;2022-12-08T18:07:25;9.35;;;5.88;;
42846;SDS011;28495;49.916;14.536;2022-12-08T18:12:46;9.13;;;5.22;;
42846;SDS011;28495;49.916;14.536;2022-12-08T18:18:07;7.57;;;5.28;;
42846;SDS011;28495;49.916;14.536;2022-12-08T18:23:28;8.68;;;4.68;;
42846;SDS011;28495;49.916;14.536;2022-12-08T18:28:48;12.55;;;5.32;;
42846;SDS011;28495;49.916;14.536;2022-12-08T18:34:09;9.60;;;5.70;;
42846;SDS011;28495;49.916;14.536;2022-12-08T18:39:31;27.45;;;17.13;;
42846;SDS011;28495;49.916;14.536;2022-12-08T18:44:55;18.42;;;11.07;;
42846;SDS011;28495;49.916;14.536;2022-12-08T18:50:26;18.00;;;10.45;;
42846;SDS011;28495;49.916;14.536;2022-12-08T18:55:46;18.83;;;10.80;;
42846;SDS011;28495;49.916;14.536;2022-12-08T19:01:13;17.00;;;9.57;;
42846;SDS011;28495;49.916;14.536;2022-12-08T19:06:37;10.88;;;7.60;;
42846;SDS011;28495;49.916;14.536;2022-12-08T19:11:59;10.07;;;5.63;;
42846;SDS011;28495;49.916;14.536;2022-12-08T19:17:20;29.50;;;15.15;;
42846;SDS011;28495;49.916;14.536;2022-12-08T19:22:41;33.95;;;17.85;;
42846;SDS011;28495;49.916;14.536;2022-12-08T19:28:02;32.15;;;18.42;;
42846;SDS011;28495;49.916;14.536;2022-12-08T19:33:24;40.47;;;21.45;;
42846;SDS011;28495;49.916;14.536;2022-12-08T19:38:47;30.00;;;16.63;;
42846;SDS011;28495;49.916;14.536;2022-12-08T19:44:27;34.90;;;18.65;;
42846;SDS011;28495;49.916;14.536;2022-12-08T19:50:07;31.58;;;17.08;;
42846;SDS011;28495;49.916;14.536;2022-12-08T19:55:47;29.05;;;16.80;;
42846;SDS011;28495;49.916;14.536;2022-12-08T20:01:08;31.58;;;17.27;;
42846;SDS011;28495;49.916;14.536;2022-12-08T20:06:29;31.17;;;16.95;;
42846;SDS011;28495;49.916;14.536;2022-12-08T20:11:50;44.30;;;24.63;;
42846;SDS011;28495;49.916;14.536;2022-12-08T20:17:14;34.03;;;18.70;;
42846;SDS011;28495;49.916;14.536;2022-12-08T20:22:34;29.13;;;17.80;;
42846;SDS011;28495;49.916;14.536;2022-12-08T20:27:55;27.42;;;15.07;;
42846;SDS011;28495;49.916;14.536;2022-12-08T20:33:16;20.85;;;11.13;;
42846;SDS011;28495;49.916;14.536;2022-12-08T20:38:38;21.30;;;11.60;;
42846;SDS011;28495;49.916;14.536;2022-12-08T20:43:59;22.45;;;11.75;;
42846;SDS011;28495;49.916;14.536;2022-12-08T20:49:20;23.83;;;12.38;;
42846;SDS011;28495;49.916;14.536;2022-12-08T20:54:41;29.58;;;15.98;;
42846;SDS011;28495;49.916;14.536;2022-12-08T21:00:04;29.30;;;15.63;;
42846;SDS011;28495;49.916;14.536;2022-12-08T21:05:26;29.83;;;16.80;;
42846;SDS011;28495;49.916;14.536;2022-12-08T21:10:56;36.60;;;19.63;;
42846;SDS011;28495;49.916;14.536;2022-12-08T21:16:17;39.50;;;24.13;;
42846;SDS011;28495;49.916;14.536;2022-12-08T21:21:38;41.58;;;25.75;;
42846;SDS011;28495;49.916;14.536;2022-12-08T21:26:59;37.30;;;20.98;;
42846;SDS011;28495;49.916;14.536;2022-12-08T21:32:21;32.22;;;19.85;;
42846;SDS011;28495;49.916;14.536;2022-12-08T21:37:49;28.13;;;16.23;;
42846;SDS011;28495;49.916;14.536;2022-12-08T21:43:10;25.30;;;13.95;;
42846;SDS011;28495;49.916;14.536;2022-12-08T21:48:33;27.83;;;15.52;;
42846;SDS011;28495;49.916;14.536;2022-12-08T21:53:53;27.67;;;14.20;;
42846;SDS011;28495;49.916;14.536;2022-12-08T21:59:14;29.95;;;15.73;;
42846;SDS011;28495;49.916;14.536;2022-12-08T22:04:36;26.85;;;14.95;;
42846;SDS011;28495;49.916;14.536;2022-12-08T22:09:58;30.23;;;16.13;;
42846;SDS011;28495;49.916;14.536;2022-12-08T22:15:20;28.60;;;16.25;;
42846;SDS011;28495;49.916;14.536;2022-12-08T22:20:41;32.45;;;18.15;;
42846;SDS011;28495;49.916;14.536;2022-12-08T22:26:04;28.42;;;16.92;;
42846;SDS011;28495;49.916;14.536;2022-12-08T22:31:26;26.20;;;15.18;;
42846;SDS011;28495;49.916;14.536;2022-12-08T22:36:47;34.38;;;16.48;;
42846;SDS011;28495;49.916;14.536;2022-12-08T22:42:08;28.00;;;16.05;;
42846;SDS011;28495;49.916;14.536;2022-12-08T22:47:29;30.92;;;16.85;;
42846;SDS011;28495;49.916;14.536;2022-12-08T22:52:50;24.83;;;13.75;;
42846;SDS011;28495;49.916;14.536;2022-12-08T22:58:10;24.10;;;14.20;;
42846;SDS011;28495;49.916;14.536;2022-12-08T23:03:31;27.40;;;15.20;;
42846;SDS011;28495;49.916;14.536;2022-12-08T23:08:53;46.22;;;23.17;;
42846;SDS011;28495;49.916;14.536;2022-12-08T23:14:14;35.40;;;19.35;;
42846;SDS011;28495;49.916;14.536;2022-12-08T23:19:36;29.90;;;15.05;;
42846;SDS011;28495;49.916;14.536;2022-12-08T23:24:58;25.38;;;13.90;;
42846;SDS011;28495;49.916;14.536;2022-12-08T23:30:18;22.23;;;12.35;;
42846;SDS011;28495;49.916;14.536;2022-12-08T23:35:39;27.17;;;15.57;;
42846;SDS011;28495;49.916;14.536;2022-12-08T23:41:00;26.80;;;15.18;;
42846;SDS011;28495;49.916;14.536;2022-12-08T23:46:25;25.50;;;13.88;;
42846;SDS011;28495;49.916;14.536;2022-12-08T23:51:47;24.13;;;13.73;;
42846;SDS011;28495;49.916;14.536;2022-12-08T23:57:08;28.17;;;16.17;;
